Time;durP1;ratioP1;P1;durP2;ratioP2;P2;SDS_P1;SDS_P2;PMS_P1;PMS_P2;Temp;Humidity;BMP_temperature;BMP_pressure;BME280_temperature;BME280_humidity;BME280_pressure;Samples;Min_cycle;Max_cycle;Signal;HPM_P1;HPM_P2
2022/10/10 00:01:19;;;;;;;9.73;8.30;;;;;;;11.44;100.00;154298.38;5071135;28;20442;-75
2022/10/10 00:03:46;;;;;;;10.00;9.00;;;;;;;11.43;100.00;154294.50;5070853;28;20446;-76
2022/10/10 00:06:13;;;;;;;11.10;9.00;;;;;;;11.42;100.00;154291.91;5038897;28;20489;-76
2022/10/10 00:08:40;;;;;;;9.83;8.80;;;;;;;11.44;100.00;154297.06;5053015;28;20462;-76
2022/10/10 00:11:07;;;;;;;10.10;9.10;;;;;;;11.47;100.00;154306.16;5072006;28;20441;-76
2022/10/10 00:13:34;;;;;;;10.67;8.97;;;;;;;11.45;100.00;154299.69;5070290;28;20781;-76
2022/10/10 00:16:01;;;;;;;13.77;9.20;;;;;;;11.47;100.00;154304.84;5071864;28;20430;-76
2022/10/10 00:18:29;;;;;;;9.97;8.20;;;;;;;11.48;100.00;154307.47;5069556;28;20438;-76
2022/10/10 00:20:56;;;;;;;10.40;8.63;;;;;;;11.49;100.00;154310.06;5056593;28;20448;-76
2022/10/10 00:23:22;;;;;;;8.60;7.67;;;;;;;11.48;100.00;154307.47;5053703;28;20444;-76
2022/10/10 00:25:49;;;;;;;9.53;8.40;;;;;;;11.46;100.00;154302.28;5053507;28;20435;-76
2022/10/10 00:28:16;;;;;;;10.60;9.43;;;;;;;11.46;100.00;154302.28;5062139;28;20912;-76
2022/10/10 00:30:43;;;;;;;10.60;8.40;;;;;;;11.48;100.00;154308.75;5070901;28;20434;-76
2022/10/10 00:33:10;;;;;;;8.67;7.77;;;;;;;11.50;100.00;154313.94;5070093;28;20816;-76
2022/10/10 00:35:38;;;;;;;10.63;8.80;;;;;;;11.52;100.00;154317.81;5072408;28;20430;-76
2022/10/10 00:38:05;;;;;;;9.77;8.67;;;;;;;11.52;100.00;154319.09;5065308;28;20454;-76
2022/10/10 00:40:32;;;;;;;9.83;8.83;;;;;;;11.53;100.00;154320.41;5070736;28;20937;-76
2022/10/10 00:42:59;;;;;;;9.77;8.57;;;;;;;11.52;100.00;154317.81;5069794;28;20814;-76
2022/10/10 00:45:32;;;;;;;11.23;8.00;;;;;;;11.54;100.00;154323.03;5070936;28;20430;-76
2022/10/10 00:48:04;;;;;;;9.53;8.30;;;;;;;11.54;100.00;154324.28;5070605;28;20468;-76
2022/10/10 00:50:34;;;;;;;10.57;8.50;;;;;;;11.53;100.00;154320.41;5069629;28;20450;-76
2022/10/10 00:53:04;;;;;;;9.73;8.73;;;;;;;11.53;100.00;154321.72;5050613;28;20520;-76
2022/10/10 00:55:30;;;;;;;12.77;8.70;;;;;;;11.58;100.00;154333.38;5050326;28;20541;-76
2022/10/10 00:57:57;;;;;;;10.23;8.40;;;;;;;11.55;100.00;154326.88;5056490;28;20446;-76
2022/10/10 01:00:24;;;;;;;10.23;8.57;;;;;;;11.56;100.00;154328.19;5064986;28;20477;-76
2022/10/10 01:02:50;;;;;;;10.40;8.87;;;;;;;11.54;100.00;154324.28;5052713;28;20471;-75
2022/10/10 01:05:17;;;;;;;13.77;11.00;;;;;;;11.53;100.00;154320.41;5058996;28;20987;-76
2022/10/10 01:07:44;;;;;;;10.30;8.60;;;;;;;11.53;100.00;154320.41;5065581;28;20761;-76
2022/10/10 01:10:15;;;;;;;10.03;8.60;;;;;;;11.53;100.00;154320.41;5059722;28;20450;-75
2022/10/10 01:13:03;;;;;;;10.73;9.53;;;;;;;11.51;100.00;154315.25;5070039;28;20480;-76
2022/10/10 01:15:35;;;;;;;10.60;8.73;;;;;;;11.50;100.00;154312.63;5065764;28;20762;-76
2022/10/10 01:18:08;;;;;;;10.40;9.37;;;;;;;11.49;100.00;154310.06;5070599;28;20457;-75
2022/10/10 01:20:59;;;;;;;9.30;8.40;;;;;;;11.49;100.00;154311.31;5092275;28;20429;-76
2022/10/10 01:23:42;;;;;;;11.60;9.30;;;;;;;11.47;100.00;154304.84;5073510;28;20444;-76
2022/10/10 01:26:42;;;;;;;9.10;8.30;;;;;;;11.45;100.00;154299.69;5052731;28;20442;-76
2022/10/10 01:29:16;;;;;;;10.83;8.37;;;;;;;11.44;100.00;154297.06;5046769;28;20454;-76
2022/10/10 01:31:46;;;;;;;10.97;9.13;;;;;;;11.46;100.00;154303.53;5055641;28;20469;-76
2022/10/10 01:34:19;;;;;;;11.30;8.40;;;;;;;11.47;100.00;154306.16;5065772;28;20445;-76
2022/10/10 01:36:52;;;;;;;12.40;9.03;;;;;;;11.49;100.00;154311.31;5055276;28;20431;-75
2022/10/10 01:39:24;;;;;;;10.50;8.63;;;;;;;11.48;100.00;154307.47;5053907;28;20515;-76
2022/10/10 01:41:56;;;;;;;10.70;9.60;;;;;;;11.49;100.00;154311.31;5053868;28;20431;-76
2022/10/10 01:44:24;;;;;;;9.60;8.60;;;;;;;11.50;100.00;154312.63;5063588;28;20453;-76
2022/10/10 01:46:51;;;;;;;11.03;9.93;;;;;;;11.52;100.00;154319.09;5073077;28;20450;-76
2022/10/10 01:49:18;;;;;;;12.93;8.93;;;;;;;11.53;100.00;154321.72;5069400;28;20462;-75
2022/10/10 01:51:54;;;;;;;10.37;8.70;;;;;;;11.55;100.00;154325.59;5070470;28;20832;-75
2022/10/10 01:54:34;;;;;;;9.00;8.10;;;;;;;11.54;100.00;154323.03;5073082;28;20844;-76
2022/10/10 01:57:12;;;;;;;12.67;9.53;;;;;;;11.54;100.00;154323.03;5073605;28;20959;-76
2022/10/10 01:59:47;;;;;;;10.27;8.80;;;;;;;11.54;100.00;154323.03;5073444;28;20932;-76
2022/10/10 02:02:20;;;;;;;10.83;9.20;;;;;;;11.54;100.00;154324.28;5055336;28;20478;-76
2022/10/10 02:04:49;;;;;;;9.47;8.50;;;;;;;11.54;100.00;154324.28;5059342;28;20496;-76
2022/10/10 02:07:18;;;;;;;10.13;9.13;;;;;;;11.56;100.00;154328.19;5062312;28;20474;-76
2022/10/10 02:09:45;;;;;;;13.50;9.03;;;;;;;11.53;100.00;154320.41;5054904;28;20454;-76
2022/10/10 02:12:13;;;;;;;10.47;8.77;;;;;;;11.51;100.00;154316.53;5065657;28;20823;-75
2022/10/10 02:14:43;;;;;;;12.27;9.70;;;;;;;11.50;100.00;154312.63;5072606;28;20446;-76
2022/10/10 02:17:12;;;;;;;11.73;9.70;;;;;;;11.52;100.00;154317.81;5074683;28;20426;-76
2022/10/10 02:19:43;;;;;;;11.63;10.43;;;;;;;11.53;100.00;154320.41;5073275;28;20444;-76
2022/10/10 02:22:10;;;;;;;10.10;8.77;;;;;;;11.52;100.00;154319.09;5072028;28;20445;-76
2022/10/10 02:24:37;;;;;;;13.53;8.80;;;;;;;11.51;100.00;154316.53;5065845;28;20465;-75
2022/10/10 02:27:09;;;;;;;10.30;9.10;;;;;;;11.52;100.00;154319.09;5074611;28;20442;-76
2022/10/10 02:29:37;;;;;;;13.30;10.43;;;;;;;11.54;100.00;154323.03;5056502;28;20461;-76
2022/10/10 02:32:08;;;;;;;10.03;9.00;;;;;;;11.52;100.00;154317.81;5073091;28;20570;-75
2022/10/10 02:34:37;;;;;;;10.47;9.37;;;;;;;11.51;100.00;154316.53;5073800;28;20465;-76
2022/10/10 02:37:09;;;;;;;13.77;9.63;;;;;;;11.51;100.00;154315.25;5069552;28;20427;-76
2022/10/10 02:39:39;;;;;;;10.67;9.27;;;;;;;11.51;100.00;154315.25;5054467;28;20435;-76
2022/10/10 02:42:06;;;;;;;10.00;9.07;;;;;;;11.51;100.00;154316.53;5055049;28;20527;-76
2022/10/10 02:44:33;;;;;;;14.03;8.70;;;;;;;11.51;100.00;154315.25;5071479;28;20450;-76
2022/10/10 02:47:00;;;;;;;11.27;9.67;;;;;;;11.49;100.00;154310.06;5074036;28;20441;-76
2022/10/10 02:49:30;;;;;;;9.37;8.37;;;;;;;11.50;100.00;154312.63;5073310;28;20450;-76
2022/10/10 02:51:57;;;;;;;11.20;9.43;;;;;;;11.48;100.00;154308.75;5073676;28;20802;-76
2022/10/10 02:54:24;;;;;;;11.50;9.90;;;;;;;11.46;100.00;154303.53;5071956;28;20450;-76
2022/10/10 02:56:50;;;;;;;10.70;9.63;;;;;;;11.46;100.00;154303.53;5068513;28;20492;-76
2022/10/10 02:59:18;;;;;;;10.30;9.20;;;;;;;11.46;100.00;154302.28;5051727;28;20443;-76
2022/10/10 03:01:44;;;;;;;13.73;10.57;;;;;;;11.46;100.00;154303.53;5071786;28;20434;-76
2022/10/10 03:04:11;;;;;;;10.23;9.20;;;;;;;11.46;100.00;154302.28;5071112;28;20491;-76
2022/10/10 03:06:39;;;;;;;10.00;9.10;;;;;;;11.45;100.00;154299.69;5053076;28;20577;-76
2022/10/10 03:09:06;;;;;;;9.67;8.67;;;;;;;11.47;100.00;154306.16;5053045;28;20828;-76
2022/10/10 03:11:33;;;;;;;10.60;9.40;;;;;;;11.48;100.00;154307.47;5056148;28;20917;-76
2022/10/10 03:13:59;;;;;;;13.20;9.70;;;;;;;11.45;100.00;154299.69;5071161;28;20826;-76
2022/10/10 03:16:26;;;;;;;10.13;8.83;;;;;;;11.45;100.00;154299.69;5071147;28;21089;-76
2022/10/10 03:18:53;;;;;;;10.47;9.30;;;;;;;11.45;100.00;154299.69;5072639;28;20450;-76
2022/10/10 03:21:19;;;;;;;10.80;8.47;;;;;;;11.42;100.00;154293.19;5072190;28;20445;-76
2022/10/10 03:23:47;;;;;;;10.30;9.20;;;;;;;11.39;100.00;154284.13;5069351;28;20447;-75
2022/10/10 03:26:14;;;;;;;10.07;9.00;;;;;;;11.38;100.00;154281.56;5052261;28;20436;-76
2022/10/10 03:28:41;;;;;;;9.63;8.63;;;;;;;11.36;100.00;154277.63;5052052;28;20462;-75
2022/10/10 03:31:07;;;;;;;10.90;9.13;;;;;;;11.33;100.00;154268.59;5063254;28;20466;-76
2022/10/10 03:33:34;;;;;;;10.80;9.23;;;;;;;11.33;100.00;154268.59;5069846;28;20535;-75
2022/10/10 03:36:01;;;;;;;11.20;9.30;;;;;;;11.36;100.00;154277.63;5067271;28;20775;-76
2022/10/10 03:38:27;;;;;;;11.37;9.17;;;;;;;11.33;100.00;154268.59;5057714;28;20920;-76
2022/10/10 03:40:55;;;;;;;12.17;9.07;;;;;;;11.31;100.00;154264.69;5071545;28;20461;-76
2022/10/10 03:43:22;;;;;;;9.40;8.40;;;;;;;11.32;100.00;154266.00;5072574;28;20422;-75
2022/10/10 03:45:49;;;;;;;10.03;9.00;;;;;;;11.30;100.00;154262.13;5072308;28;20442;-76
2022/10/10 03:48:16;;;;;;;15.43;8.80;;;;;;;11.29;100.00;154259.53;5068128;28;20796;-76
2022/10/10 03:50:43;;;;;;;10.30;9.10;;;;;;;11.28;100.00;154255.66;5070050;28;20458;-76
2022/10/10 03:53:09;;;;;;;11.87;10.03;;;;;;;11.28;100.00;154255.66;5071457;28;20521;-76
2022/10/10 03:55:39;;;;;;;10.70;9.60;;;;;;;11.28;100.00;154255.66;5071873;28;20450;-76
2022/10/10 03:58:07;;;;;;;10.20;9.03;;;;;;;11.27;100.00;154253.03;5071145;28;20431;-76
2022/10/10 04:00:33;;;;;;;11.53;9.20;;;;;;;11.27;100.00;154254.34;5071324;28;20446;-76
2022/10/10 04:03:04;;;;;;;10.23;9.23;;;;;;;11.26;100.00;154251.75;5072359;28;20410;-76
2022/10/10 04:05:33;;;;;;;9.50;8.50;;;;;;;11.26;100.00;154250.44;5057284;28;20489;-76
2022/10/10 04:08:00;;;;;;;9.87;8.60;;;;;;;11.26;100.00;154250.44;5044603;28;20438;-76
2022/10/10 04:10:26;;;;;;;10.63;8.87;;;;;;;11.27;100.00;154254.34;5071568;28;20449;-75
2022/10/10 04:12:53;;;;;;;9.60;8.43;;;;;;;11.27;100.00;154253.03;5072068;28;20477;-76
2022/10/10 04:15:21;;;;;;;10.53;8.40;;;;;;;11.28;100.00;154255.66;5069528;28;20458;-76
2022/10/10 04:17:48;;;;;;;11.23;9.67;;;;;;;11.28;100.00;154256.91;5072139;28;20489;-75
2022/10/10 04:20:15;;;;;;;9.83;8.53;;;;;;;11.25;100.00;154247.88;5073046;28;20838;-76
2022/10/10 04:22:42;;;;;;;11.63;8.37;;;;;;;11.26;100.00;154250.44;5063119;28;20435;-76
2022/10/10 04:25:09;;;;;;;10.20;8.70;;;;;;;11.27;100.00;154253.03;5050658;28;20950;-76
2022/10/10 04:27:36;;;;;;;12.87;9.10;;;;;;;11.27;100.00;154254.34;5064492;28;20754;-75
2022/10/10 04:30:02;;;;;;;9.37;8.47;;;;;;;11.28;100.00;154255.66;5068201;28;20439;-76
2022/10/10 04:32:31;;;;;;;9.60;8.50;;;;;;;11.28;100.00;154256.91;5066106;28;20431;-76
2022/10/10 04:34:57;;;;;;;10.23;9.13;;;;;;;11.27;100.00;154253.03;5069017;28;20514;-76
2022/10/10 04:37:24;;;;;;;9.57;8.27;;;;;;;11.27;100.00;154253.03;5072002;28;20441;-76
2022/10/10 04:39:50;;;;;;;9.40;7.87;;;;;;;11.29;100.00;154258.22;5063241;28;20439;-75
2022/10/10 04:42:17;;;;;;;9.70;8.70;;;;;;;11.28;100.00;154255.66;5050800;28;20450;-76
2022/10/10 04:44:44;;;;;;;9.93;8.93;;;;;;;11.26;100.00;154250.44;5062655;28;20807;-74
2022/10/10 04:47:11;;;;;;;11.07;8.93;;;;;;;11.26;100.00;154250.44;5071962;28;20809;-75
2022/10/10 04:49:40;;;;;;;9.70;8.20;;;;;;;11.25;100.00;154249.13;5066820;28;20446;-75
2022/10/10 04:52:07;;;;;;;9.60;8.60;;;;;;;11.24;100.00;154246.56;5069888;28;20453;-74
2022/10/10 04:54:34;;;;;;;12.10;8.37;;;;;;;11.21;100.00;154237.47;5071059;28;20568;-75
2022/10/10 04:57:01;;;;;;;10.17;8.60;;;;;;;11.20;100.00;154236.19;5052651;28;20434;-74
2022/10/10 04:59:28;;;;;;;10.23;8.77;;;;;;;11.19;100.00;154233.63;5072106;28;20429;-74
2022/10/10 05:01:54;;;;;;;10.73;9.00;;;;;;;11.20;100.00;154236.19;5055721;28;20486;-74
2022/10/10 05:04:21;;;;;;;8.80;7.93;;;;;;;11.18;100.00;154229.72;5067756;28;20458;-75
2022/10/10 05:06:49;;;;;;;8.30;7.37;;;;;;;11.19;100.00;154232.31;5066502;28;20477;-75
2022/10/10 05:09:15;;;;;;;9.33;8.40;;;;;;;11.20;100.00;154236.19;5065015;28;20461;-75
2022/10/10 05:11:42;;;;;;;12.17;8.47;;;;;;;11.21;100.00;154238.78;5070295;28;20449;-74
2022/10/10 05:14:09;;;;;;;8.80;7.90;;;;;;;11.22;100.00;154241.41;5067761;28;20474;-75
2022/10/10 05:16:35;;;;;;;9.17;8.27;;;;;;;11.21;100.00;154237.47;5071098;28;20462;-74
2022/10/10 05:19:02;;;;;;;8.90;8.00;;;;;;;11.21;100.00;154238.78;5071513;28;20552;-75
2022/10/10 05:21:29;;;;;;;10.07;8.47;;;;;;;11.23;100.00;154242.66;5064732;28;20450;-75
2022/10/10 05:23:57;;;;;;;10.43;9.30;;;;;;;11.23;100.00;154243.97;5071856;28;20437;-75
2022/10/10 05:26:23;;;;;;;9.03;8.10;;;;;;;11.24;100.00;154245.25;5067590;28;20961;-75
2022/10/10 05:28:50;;;;;;;9.77;8.77;;;;;;;11.23;100.00;154242.66;5086558;28;20454;-75
2022/10/10 05:31:17;;;;;;;8.83;7.20;;;;;;;11.22;100.00;154240.09;5069274;28;20441;-74
2022/10/10 05:33:44;;;;;;;9.87;8.10;;;;;;;11.22;100.00;154241.41;5071341;28;21098;-75
2022/10/10 05:36:12;;;;;;;9.30;8.20;;;;;;;11.21;100.00;154238.78;5069735;28;20501;-74
2022/10/10 05:38:40;;;;;;;9.73;8.50;;;;;;;11.24;100.00;154246.56;5084379;28;20533;-74
2022/10/10 05:41:08;;;;;;;8.43;7.60;;;;;;;11.24;100.00;154245.25;5068988;28;20959;-74
2022/10/10 05:43:35;;;;;;;11.10;8.80;;;;;;;11.22;100.00;154241.41;5067863;28;20446;-75
2022/10/10 05:46:02;;;;;;;12.43;9.17;;;;;;;11.22;100.00;154240.09;5064447;28;20448;-75
2022/10/10 05:48:28;;;;;;;10.20;9.00;;;;;;;11.21;100.00;154237.47;5068010;28;20454;-75
2022/10/10 05:50:56;;;;;;;10.23;8.80;;;;;;;11.22;100.00;154240.09;5071610;28;20533;-75
2022/10/10 05:53:23;;;;;;;10.47;8.93;;;;;;;11.23;100.00;154242.66;5072326;28;20473;-75
2022/10/10 05:55:50;;;;;;;10.90;9.27;;;;;;;11.23;100.00;154243.97;5071029;28;20445;-75
2022/10/10 05:58:18;;;;;;;13.27;9.23;;;;;;;11.24;100.00;154245.25;5067570;28;20456;-75
2022/10/10 06:00:46;;;;;;;13.47;9.47;;;;;;;11.26;100.00;154250.44;5061562;28;20450;-75
2022/10/10 06:03:15;;;;;;;9.70;8.70;;;;;;;11.28;100.00;154255.66;5069569;28;20456;-75
2022/10/10 06:05:43;;;;;;;10.43;8.50;;;;;;;11.29;100.00;154259.53;5064932;28;20979;-75
2022/10/10 06:08:10;;;;;;;14.50;8.57;;;;;;;11.32;100.00;154266.00;5068878;28;20558;-75
2022/10/10 06:10:37;;;;;;;11.93;8.80;;;;;;;11.35;100.00;154273.78;5070382;28;20457;-75
2022/10/10 06:13:04;;;;;;;11.67;9.67;;;;;;;11.38;100.00;154281.56;5070543;28;20485;-74
2022/10/10 06:15:32;;;;;;;9.87;8.50;;;;;;;11.40;100.00;154286.72;5068064;28;20458;-75
2022/10/10 06:17:59;;;;;;;11.77;8.90;;;;;;;11.41;100.00;154290.59;5068493;28;20450;-75
2022/10/10 06:20:25;;;;;;;13.57;9.53;;;;;;;11.46;100.00;154302.28;5071252;28;21100;-74
2022/10/10 06:22:52;;;;;;;12.30;9.83;;;;;;;11.49;100.00;154311.31;5065615;28;20549;-75
2022/10/10 06:25:19;;;;;;;10.00;8.90;;;;;;;11.53;100.00;154321.72;5068413;28;20465;-74
2022/10/10 06:27:46;;;;;;;11.73;9.23;;;;;;;11.57;100.00;154332.06;5068893;28;20457;-75
2022/10/10 06:30:13;;;;;;;10.07;9.00;;;;;;;11.62;100.00;154343.75;5067705;28;20598;-75
2022/10/10 06:32:43;;;;;;;11.73;9.40;;;;;;;11.66;100.00;154354.09;5066123;28;20567;-82
2022/10/10 06:35:10;;;;;;;10.30;9.30;;;;;;;11.72;100.00;154369.72;5070398;28;20481;-83
2022/10/10 06:37:37;;;;;;;10.77;9.47;;;;;;;11.79;100.00;154387.84;5070375;28;20473;-82
2022/10/10 06:40:04;;;;;;;12.30;9.20;;;;;;;11.85;100.00;154402.09;5070976;28;20490;-83
2022/10/10 06:42:31;;;;;;;9.33;8.37;;;;;;;11.88;100.00;154411.19;5072118;28;20441;-82
2022/10/10 06:44:57;;;;;;;10.13;9.07;;;;;;;11.90;100.00;154416.38;5064862;28;20449;-83
2022/10/10 06:47:24;;;;;;;10.50;9.50;;;;;;;11.93;100.00;154424.16;5072734;28;20446;-83
2022/10/10 06:49:52;;;;;;;10.80;9.70;;;;;;;11.94;100.00;154426.72;5070742;28;20460;-83
2022/10/10 06:52:19;;;;;;;10.20;9.10;;;;;;;11.97;100.00;154433.19;5065282;28;21018;-83
2022/10/10 06:54:46;;;;;;;10.30;9.10;;;;;;;11.98;100.00;154435.81;5071914;28;20580;-83
2022/10/10 06:57:12;;;;;;;11.00;9.07;;;;;;;12.01;100.00;154444.91;5051688;28;20531;-83
2022/10/10 06:59:39;;;;;;;12.77;10.17;;;;;;;12.04;100.00;154452.69;5065923;28;20462;-83
2022/10/10 07:02:06;;;;;;;11.27;9.37;;;;;;;12.06;100.00;154457.84;5072147;28;20960;-83
2022/10/10 07:04:32;;;;;;;11.90;9.20;;;;;;;12.12;100.00;154473.41;5065522;28;20457;-83
2022/10/10 07:07:00;;;;;;;11.00;9.80;;;;;;;12.25;100.00;154504.50;5059514;28;20474;-83
2022/10/10 07:09:27;;;;;;;11.87;9.77;;;;;;;12.32;100.00;154523.94;5067831;28;20553;-83
2022/10/10 07:11:54;;;;;;;14.53;9.57;;;;;;;12.36;100.00;154534.34;5072970;28;20541;-83
2022/10/10 07:14:20;;;;;;;19.13;9.00;;;;;;;12.42;100.00;154548.56;5068937;28;20478;-83
2022/10/10 07:16:47;;;;;;;12.43;10.57;;;;;;;12.51;100.00;154571.94;5071725;28;20431;-83
2022/10/10 07:19:14;;;;;;;12.00;9.60;;;;;;;12.67;100.00;154613.44;5064331;28;20438;-83
2022/10/10 07:21:40;;;;;;;11.07;9.87;;;;;;;12.99;100.00;154696.47;5069490;28;20512;-83
2022/10/10 07:24:08;;;;;;;11.80;10.07;;;;;;;13.04;100.00;154708.13;5069977;28;20627;-83
2022/10/10 07:26:37;;;;;;;9.73;8.73;;;;;;;13.07;100.00;154717.25;5069699;28;20972;-83
2022/10/10 07:29:03;;;;;;;13.37;9.00;;;;;;;13.06;100.00;154713.28;5067203;28;20814;-83
2022/10/10 07:31:30;;;;;;;12.90;10.17;;;;;;;13.04;100.00;154709.44;5071781;28;20492;-83
2022/10/10 07:33:57;;;;;;;11.93;9.63;;;;;;;13.00;100.00;154697.75;5070208;28;20496;-83
2022/10/10 07:36:23;;;;;;;13.03;9.30;;;;;;;13.00;100.00;154699.03;5067957;28;20447;-83
2022/10/10 07:38:51;;;;;;;9.60;8.70;;;;;;;12.99;100.00;154695.16;5062890;28;20465;-75
2022/10/10 07:41:20;;;;;;;9.50;8.60;;;;;;;13.02;100.00;154702.94;5064057;28;20545;-75
2022/10/10 07:43:47;;;;;;;13.50;9.00;;;;;;;13.04;100.00;154709.44;5063353;28;20458;-75
2022/10/10 07:46:15;;;;;;;10.00;7.90;;;;;;;13.07;100.00;154715.97;5058499;28;20552;-75
2022/10/10 07:48:41;;;;;;;12.00;9.53;;;;;;;13.10;100.00;154725.06;5061664;28;20467;-74
2022/10/10 07:51:08;;;;;;;10.37;8.97;;;;;;;13.14;100.00;154735.41;5064599;28;20452;-74
2022/10/10 07:53:35;;;;;;;8.80;7.90;;;;;;;13.16;100.00;154739.28;5056298;28;20805;-75
2022/10/10 07:56:04;;;;;;;10.63;9.30;;;;;;;13.21;100.00;154753.56;5066064;28;20533;-75
2022/10/10 07:58:32;;;;;;;13.80;9.30;;;;;;;13.24;100.00;154761.34;5066491;28;20454;-75
2022/10/10 08:01:03;;;;;;;10.57;8.93;;;;;;;13.32;100.00;154782.13;5066620;28;20441;-75
2022/10/10 08:03:30;;;;;;;11.03;8.50;;;;;;;13.37;100.00;154795.09;5058820;28;20500;-75
2022/10/10 08:05:57;;;;;;;12.07;9.70;;;;;;;13.42;100.00;154808.06;5057849;28;20506;-75
2022/10/10 08:08:23;;;;;;;11.63;9.20;;;;;;;13.46;100.00;154815.84;5062657;28;20438;-75
2022/10/10 08:10:50;;;;;;;11.03;9.07;;;;;;;13.50;100.00;154826.25;5066480;28;20457;-75
2022/10/10 08:13:16;;;;;;;13.93;9.63;;;;;;;13.54;100.00;154837.91;5065198;28;20495;-75
2022/10/10 08:15:44;;;;;;;10.83;9.07;;;;;;;13.56;100.00;154841.78;5065753;28;20515;-75
2022/10/10 08:18:11;;;;;;;15.17;8.60;;;;;;;13.59;100.00;154849.59;5065963;28;20448;-75
2022/10/10 08:20:38;;;;;;;13.97;9.07;;;;;;;13.67;100.00;154870.34;5064951;28;20454;-75
2022/10/10 08:23:04;;;;;;;14.80;7.43;;;;;;;13.70;100.00;154878.16;5065408;28;20450;-75
2022/10/10 08:25:31;;;;;;;11.77;8.70;;;;;;;13.76;100.00;154893.75;5062697;28;20960;-75
2022/10/10 08:27:57;;;;;;;10.03;8.30;;;;;;;13.83;100.00;154911.91;5067950;28;20479;-75
2022/10/10 08:30:24;;;;;;;8.90;7.80;;;;;;;13.90;100.00;154930.06;5068419;28;20450;-75
2022/10/10 08:32:52;;;;;;;12.20;7.87;;;;;;;13.98;100.00;154950.81;5064200;28;20491;-75
2022/10/10 08:35:19;;;;;;;10.43;7.00;;;;;;;14.00;100.00;154956.06;5064558;28;20577;-75
2022/10/10 08:37:46;;;;;;;9.20;7.60;;;;;;;14.06;100.00;154971.59;5065091;28;20480;-75
2022/10/10 08:40:14;;;;;;;10.43;8.57;;;;;;;14.13;100.00;154988.50;5066092;28;20454;-75
2022/10/10 08:42:45;;;;;;;9.60;6.70;;;;;;;14.19;100.00;155004.09;5063224;28;20454;-75
2022/10/10 08:45:15;;;;;;;7.73;6.93;;;;;;;14.22;100.00;155013.16;5057548;28;20446;-75
2022/10/10 08:47:45;;;;;;;11.37;6.80;;;;;;;14.26;100.00;155022.25;5062277;28;20453;-75
2022/10/10 08:50:17;;;;;;;9.80;7.30;;;;;;;14.31;100.00;155035.25;5067946;28;20786;-75
2022/10/10 08:52:47;;;;;;;8.17;6.67;;;;;;;14.36;100.00;155049.59;5062064;28;20453;-75
2022/10/10 08:55:17;;;;;;;12.43;7.50;;;;;;;14.44;100.00;155069.06;5065245;28;20473;-75
2022/10/10 08:57:48;;;;;;;8.40;6.53;;;;;;;14.50;100.00;155085.97;5064984;28;20449;-75
2022/10/10 09:00:17;;;;;;;7.60;6.80;;;;;;;14.55;100.00;155098.94;5068225;28;20867;-75
2022/10/10 09:02:49;;;;;;;9.90;7.70;;;;;;;14.68;100.00;155130.09;5066190;28;20445;-75
2022/10/10 09:05:19;;;;;;;8.40;7.60;;;;;;;14.82;100.00;155166.47;5065212;28;20450;-76
2022/10/10 09:08:07;;;;;;;10.60;7.60;;;;;;;14.85;100.00;155175.53;5065750;28;20453;-74
2022/10/10 09:10:40;;;;;;;8.57;7.50;;;;;;;14.93;100.00;155195.06;5061924;28;20806;-75
2022/10/10 09:13:17;;;;;;;9.67;8.47;;;;;;;14.99;100.00;155210.63;5062113;28;20450;-75
2022/10/10 09:15:52;;;;;;;8.50;7.60;;;;;;;15.04;100.00;155224.94;5078628;28;20477;-75
2022/10/10 09:18:23;;;;;;;13.47;7.20;;;;;;;15.10;100.00;155239.22;5063704;28;20450;-75
2022/10/10 09:20:55;;;;;;;11.17;7.97;;;;;;;15.13;100.00;155248.34;5058591;28;20450;-74
2022/10/10 09:23:25;;;;;;;8.20;7.40;;;;;;;15.26;100.00;155280.81;5065845;28;20442;-75
2022/10/10 09:25:57;;;;;;;8.20;6.67;;;;;;;15.36;100.00;155305.47;5061662;28;20442;-75
2022/10/10 09:28:34;;;;;;;10.20;7.67;;;;;;;15.46;100.00;155332.81;5057729;28;20435;-75
2022/10/10 09:31:01;;;;;;;8.03;6.30;;;;;;;15.58;100.00;155364.03;5065507;28;20793;-74
2022/10/10 09:33:32;;;;;;;6.80;6.10;;;;;;;15.68;100.00;155390.03;5064523;28;20465;-74
2022/10/10 09:36:03;;;;;;;7.90;6.40;;;;;;;15.84;100.00;155430.31;5064290;28;20883;-74
2022/10/10 09:38:34;;;;;;;8.53;5.50;;;;;;;15.97;100.00;155462.81;5065428;28;20446;-74
2022/10/10 09:41:03;;;;;;;5.43;4.63;;;;;;;16.05;100.00;155483.63;5063925;28;20960;-73
2022/10/10 09:43:32;;;;;;;8.47;4.90;;;;;;;16.15;100.00;155509.66;5064388;28;20488;-73
2022/10/10 09:45:59;;;;;;;7.93;4.77;;;;;;;16.24;100.00;155533.06;5059350;28;20454;-73
2022/10/10 09:48:29;;;;;;;6.27;5.13;;;;;;;16.38;100.00;155570.78;5066225;28;20453;-75
2022/10/10 09:50:56;;;;;;;4.50;4.00;;;;;;;16.50;100.00;155600.66;5066927;28;20683;-76
2022/10/10 09:53:24;;;;;;;6.30;4.37;;;;;;;16.60;100.00;155626.72;5065589;28;20457;-77
2022/10/10 09:55:52;;;;;;;5.33;4.23;;;;;;;16.71;100.00;155654.03;5068035;28;20626;-76
2022/10/10 09:58:25;;;;;;;6.30;4.17;;;;;;;16.84;100.00;155687.88;5084708;28;20807;-76
2022/10/10 10:00:53;;;;;;;4.70;3.63;;;;;;;16.89;100.00;155700.94;5061550;28;20576;-74
2022/10/10 10:03:21;;;;;;;5.73;3.33;;;;;;;17.00;100.00;155729.50;5066089;28;20449;-75
2022/10/10 10:05:54;;;;;;;6.70;3.70;;;;;;;17.03;100.00;155737.31;5065067;28;20485;-76
2022/10/10 10:08:28;;;;;;;7.67;3.93;;;;;;;17.14;99.21;155764.66;5059561;28;20449;-76
2022/10/10 10:10:57;;;;;;;5.13;4.60;;;;;;;17.28;99.03;155801.09;5067634;28;20453;-77
2022/10/10 10:13:26;;;;;;;4.30;3.90;;;;;;;17.46;97.04;155847.94;5065432;28;20478;-76
2022/10/10 10:16:01;;;;;;;6.50;3.83;;;;;;;17.47;97.39;155850.56;5064684;28;20474;-74
2022/10/10 10:18:29;;;;;;;4.20;2.80;;;;;;;17.56;95.76;155874.03;5074361;28;20816;-76
2022/10/10 10:21:14;;;;;;;6.30;3.70;;;;;;;17.55;96.32;155872.72;5066477;28;20466;-75
2022/10/10 10:23:44;;;;;;;4.30;3.20;;;;;;;17.59;96.06;155881.84;5062146;28;20454;-76
2022/10/10 10:26:20;;;;;;;3.80;3.40;;;;;;;17.80;94.67;155936.53;5060441;28;21979;-76
2022/10/10 10:28:47;;;;;;;3.60;3.27;;;;;;;17.86;94.11;155952.16;5060455;28;20815;-76
2022/10/10 10:31:22;;;;;;;6.60;3.70;;;;;;;17.97;94.18;155979.50;5061162;28;20480;-76
2022/10/10 10:33:54;;;;;;;4.37;3.60;;;;;;;18.12;91.72;156019.88;5062185;28;20511;-74
2022/10/10 10:36:29;;;;;;;5.40;3.80;;;;;;;18.17;92.63;156031.56;5064096;28;20576;-74
2022/10/10 10:39:03;;;;;;;7.10;3.93;;;;;;;18.21;92.10;156043.28;5067044;28;20458;-74
2022/10/10 10:41:34;;;;;;;5.73;3.63;;;;;;;18.32;89.98;156070.63;5065612;28;21790;-74
2022/10/10 10:44:11;;;;;;;6.03;3.97;;;;;;;18.25;91.01;156053.72;5068818;28;20442;-75
2022/10/10 10:46:46;;;;;;;3.70;3.30;;;;;;;18.26;90.51;156055.03;5083645;28;20770;-74
2022/10/10 10:49:15;;;;;;;4.97;4.47;;;;;;;18.46;90.16;156105.81;5063755;28;20453;-74
2022/10/10 10:51:52;;;;;;;6.60;4.40;;;;;;;18.41;91.43;156092.78;5066871;28;20450;-74
2022/10/10 10:54:38;;;;;;;6.97;4.10;;;;;;;18.46;90.40;156107.09;5059995;28;20456;-74
2022/10/10 10:57:11;;;;;;;4.10;3.70;;;;;;;18.39;91.44;156087.59;5065392;28;20448;-74
2022/10/10 10:59:46;;;;;;;8.03;4.80;;;;;;;18.43;91.57;156099.28;5066886;28;20567;-74
2022/10/10 11:02:36;;;;;;;4.27;3.17;;;;;;;18.45;90.68;156103.22;5065261;28;20473;-74
2022/10/10 11:05:16;;;;;;;6.73;3.10;;;;;;;18.51;88.54;156120.19;5067660;28;20556;-74
2022/10/10 11:07:52;;;;;;;4.23;2.63;;;;;;;18.54;86.93;156126.69;5063788;28;20450;-74
2022/10/10 11:10:26;;;;;;;6.70;3.03;;;;;;;18.44;87.62;156101.91;5063397;28;20537;-74
2022/10/10 11:12:59;;;;;;;4.80;3.50;;;;;;;18.43;86.68;156097.97;5080847;28;20450;-74
2022/10/10 11:15:29;;;;;;;6.17;3.20;;;;;;;18.32;85.80;156069.38;5066226;28;21003;-74
2022/10/10 11:18:00;;;;;;;6.10;3.40;;;;;;;18.29;86.18;156061.53;5066665;28;20790;-74
2022/10/10 11:20:30;;;;;;;3.77;2.90;;;;;;;18.17;86.61;156032.88;5066736;28;20456;-74